sensor_id;sensor_type;location;lat;lon;timestamp;P1;durP1;ratioP1;P2;durP2;ratioP2
65053;SDS011;51639;47.828;35.038;2023-08-07T00:07:17;23.85;;;7.05;;
65053;SDS011;51639;47.828;35.038;2023-08-07T00:22:20;13.75;;;7.53;;
65053;SDS011;51639;47.828;35.038;2023-08-07T00:37:22;9.77;;;7.00;;
65053;SDS011;51639;47.828;35.038;2023-08-07T00:52:25;22.17;;;7.93;;
65053;SDS011;51639;47.828;35.038;2023-08-07T01:07:27;18.75;;;7.85;;
65053;SDS011;51639;47.828;35.038;2023-08-07T01:22:28;12.93;;;7.68;;
65053;SDS011;51639;47.828;35.038;2023-08-07T01:37:31;13.48;;;7.97;;
65053;SDS011;51639;47.828;35.038;2023-08-07T01:52:35;15.65;;;8.30;;
65053;SDS011;51639;47.828;35.038;2023-08-07T02:07:37;17.60;;;11.45;;
65053;SDS011;51639;47.828;35.038;2023-08-07T02:22:40;25.92;;;14.23;;
65053;SDS011;51639;47.828;35.038;2023-08-07T02:37:42;20.83;;;9.93;;
65053;SDS011;51639;47.828;35.038;2023-08-07T02:52:44;23.13;;;11.02;;
65053;SDS011;51639;47.828;35.038;2023-08-07T03:07:46;22.02;;;11.80;;
65053;SDS011;51639;47.828;35.038;2023-08-07T03:22:48;26.10;;;14.18;;
65053;SDS011;51639;47.828;35.038;2023-08-07T03:37:50;27.77;;;16.05;;
65053;SDS011;51639;47.828;35.038;2023-08-07T03:52:52;30.50;;;16.55;;
65053;SDS011;51639;47.828;35.038;2023-08-07T04:07:54;33.65;;;17.95;;
65053;SDS011;51639;47.828;35.038;2023-08-07T04:22:56;29.67;;;15.90;;
65053;SDS011;51639;47.828;35.038;2023-08-07T04:37:58;31.48;;;17.65;;
65053;SDS011;51639;47.828;35.038;2023-08-07T04:53:00;33.45;;;17.83;;
65053;SDS011;51639;47.828;35.038;2023-08-07T05:08:02;26.13;;;15.90;;
65053;SDS011;51639;47.828;35.038;2023-08-07T05:23:04;21.02;;;13.50;;
65053;SDS011;51639;47.828;35.038;2023-08-07T05:38:06;13.10;;;7.80;;
65053;SDS011;51639;47.828;35.038;2023-08-07T05:53:08;12.32;;;7.18;;
65053;SDS011;51639;47.828;35.038;2023-08-07T06:08:10;11.90;;;6.88;;
65053;SDS011;51639;47.828;35.038;2023-08-07T06:23:12;11.57;;;5.72;;
65053;SDS011;51639;47.828;35.038;2023-08-07T06:38:14;11.98;;;7.13;;
65053;SDS011;51639;47.828;35.038;2023-08-07T06:53:17;11.15;;;7.38;;
65053;SDS011;51639;47.828;35.038;2023-08-07T07:08:19;11.95;;;7.25;;
65053;SDS011;51639;47.828;35.038;2023-08-07T07:23:21;12.70;;;7.20;;
65053;SDS011;51639;47.828;35.038;2023-08-07T07:38:23;7.88;;;5.95;;
65053;SDS011;51639;47.828;35.038;2023-08-07T07:53:25;9.63;;;6.07;;
65053;SDS011;51639;47.828;35.038;2023-08-07T08:08:27;11.15;;;4.10;;
65053;SDS011;51639;47.828;35.038;2023-08-07T08:23:29;6.80;;;3.85;;
65053;SDS011;51639;47.828;35.038;2023-08-07T08:38:31;8.32;;;4.15;;
65053;SDS011;51639;47.828;35.038;2023-08-07T08:53:35;10.45;;;3.33;;
65053;SDS011;51639;47.828;35.038;2023-08-07T09:08:37;9.02;;;3.85;;
65053;SDS011;51639;47.828;35.038;2023-08-07T09:23:42;14.73;;;3.95;;
65053;SDS011;51639;47.828;35.038;2023-08-07T09:38:49;5.90;;;4.13;;
65053;SDS011;51639;47.828;35.038;2023-08-07T09:53:51;7.32;;;3.47;;
65053;SDS011;51639;47.828;35.038;2023-08-07T10:08:54;8.40;;;5.40;;
65053;SDS011;51639;47.828;35.038;2023-08-07T10:23:57;8.98;;;3.25;;
65053;SDS011;51639;47.828;35.038;2023-08-07T10:39:06;7.90;;;3.95;;
65053;SDS011;51639;47.828;35.038;2023-08-07T10:54:10;9.02;;;3.65;;
65053;SDS011;51639;47.828;35.038;2023-08-07T11:09:12;5.82;;;3.17;;
65053;SDS011;51639;47.828;35.038;2023-08-07T11:24:14;6.28;;;2.58;;
65053;SDS011;51639;47.828;35.038;2023-08-07T11:39:20;3.63;;;2.67;;
65053;SDS011;51639;47.828;35.038;2023-08-07T11:54:22;7.25;;;3.20;;
65053;SDS011;51639;47.828;35.038;2023-08-07T12:09:25;8.18;;;3.13;;
65053;SDS011;51639;47.828;35.038;2023-08-07T12:24:28;5.75;;;3.67;;
65053;SDS011;51639;47.828;35.038;2023-08-07T12:39:30;6.88;;;4.07;;
65053;SDS011;51639;47.828;35.038;2023-08-07T12:54:35;8.23;;;5.07;;
65053;SDS011;51639;47.828;35.038;2023-08-07T13:09:37;11.63;;;6.65;;
65053;SDS011;51639;47.828;35.038;2023-08-07T13:24:39;10.18;;;6.15;;
65053;SDS011;51639;47.828;35.038;2023-08-07T13:39:41;7.70;;;5.18;;
65053;SDS011;51639;47.828;35.038;2023-08-07T13:54:43;8.10;;;4.60;;
65053;SDS011;51639;47.828;35.038;2023-08-07T14:09:45;8.15;;;4.18;;
65053;SDS011;51639;47.828;35.038;2023-08-07T14:24:47;5.60;;;3.90;;
65053;SDS011;51639;47.828;35.038;2023-08-07T14:39:49;5.47;;;3.72;;
65053;SDS011;51639;47.828;35.038;2023-08-07T14:54:53;6.63;;;3.30;;
65053;SDS011;51639;47.828;35.038;2023-08-07T15:09:57;5.05;;;4.10;;
65053;SDS011;51639;47.828;35.038;2023-08-07T15:24:59;8.55;;;3.95;;
65053;SDS011;51639;47.828;35.038;2023-08-07T15:40:01;5.25;;;3.22;;
65053;SDS011;51639;47.828;35.038;2023-08-07T15:55:04;7.50;;;5.63;;
65053;SDS011;51639;47.828;35.038;2023-08-07T16:10:06;4.78;;;3.08;;
65053;SDS011;51639;47.828;35.038;2023-08-07T16:25:09;5.65;;;3.13;;
65053;SDS011;51639;47.828;35.038;2023-08-07T16:40:11;4.85;;;2.78;;
65053;SDS011;51639;47.828;35.038;2023-08-07T16:55:13;5.60;;;3.40;;
65053;SDS011;51639;47.828;35.038;2023-08-07T17:10:15;8.63;;;4.20;;
65053;SDS011;51639;47.828;35.038;2023-08-07T17:25:17;5.15;;;3.75;;
65053;SDS011;51639;47.828;35.038;2023-08-07T17:40:19;7.53;;;3.78;;
65053;SDS011;51639;47.828;35.038;2023-08-07T17:55:22;5.03;;;2.80;;
65053;SDS011;51639;47.828;35.038;2023-08-07T18:10:25;13.43;;;6.35;;
65053;SDS011;51639;47.828;35.038;2023-08-07T18:25:27;9.88;;;6.05;;
65053;SDS011;51639;47.828;35.038;2023-08-07T18:40:29;8.30;;;6.00;;
65053;SDS011;51639;47.828;35.038;2023-08-07T18:55:31;8.27;;;5.53;;
65053;SDS011;51639;47.828;35.038;2023-08-07T19:10:34;13.18;;;8.27;;
65053;SDS011;51639;47.828;35.038;2023-08-07T19:25:37;16.85;;;11.05;;
65053;SDS011;51639;47.828;35.038;2023-08-07T19:40:39;11.70;;;8.50;;
65053;SDS011;51639;47.828;35.038;2023-08-07T19:55:41;9.63;;;4.22;;
65053;SDS011;51639;47.828;35.038;2023-08-07T20:10:43;16.02;;;7.47;;
65053;SDS011;51639;47.828;35.038;2023-08-07T20:25:45;6.43;;;3.78;;
65053;SDS011;51639;47.828;35.038;2023-08-07T20:40:47;5.85;;;3.95;;
65053;SDS011;51639;47.828;35.038;2023-08-07T20:55:51;4.85;;;3.40;;
65053;SDS011;51639;47.828;35.038;2023-08-07T21:10:53;4.78;;;3.10;;
65053;SDS011;51639;47.828;35.038;2023-08-07T21:25:56;5.47;;;2.85;;
65053;SDS011;51639;47.828;35.038;2023-08-07T21:40:58;4.20;;;3.22;;
65053;SDS011;51639;47.828;35.038;2023-08-07T21:56:01;5.60;;;3.70;;
65053;SDS011;51639;47.828;35.038;2023-08-07T22:26:04;5.22;;;3.40;;
65053;SDS011;51639;47.828;35.038;2023-08-07T22:41:07;4.73;;;2.87;;
65053;SDS011;51639;47.828;35.038;2023-08-07T22:56:09;7.70;;;3.08;;
65053;SDS011;51639;47.828;35.038;2023-08-07T23:11:11;3.20;;;2.27;;
65053;SDS011;51639;47.828;35.038;2023-08-07T23:26:13;3.47;;;1.80;;
65053;SDS011;51639;47.828;35.038;2023-08-07T23:41:15;5.27;;;2.23;;
65053;SDS011;51639;47.828;35.038;2023-08-07T23:56:18;3.78;;;2.40;;
